sensor_id;sensor_type;location;lat;lon;timestamp;temperature;humidity
70550;DHT22;58101;48.658;2.328;2024-03-22T00:00:59;12.90;99.90
70550;DHT22;58101;48.658;2.328;2024-03-22T00:03:24;12.90;99.90
70550;DHT22;58101;48.658;2.328;2024-03-22T00:05:51;13.00;99.90
70550;DHT22;58101;48.658;2.328;2024-03-22T00:08:16;12.80;99.90
70550;DHT22;58101;48.658;2.328;2024-03-22T00:10:42;12.80;99.90
70550;DHT22;58101;48.658;2.328;2024-03-22T00:13:07;12.70;99.90
70550;DHT22;58101;48.658;2.328;2024-03-22T00:15:33;12.70;99.90
70550;DHT22;58101;48.658;2.328;2024-03-22T00:17:58;12.60;99.90
70550;DHT22;58101;48.658;2.328;2024-03-22T00:20:24;12.60;99.90
70550;DHT22;58101;48.658;2.328;2024-03-22T00:22:50;12.50;99.90
70550;DHT22;58101;48.658;2.328;2024-03-22T00:25:15;12.60;99.90
70550;DHT22;58101;48.658;2.328;2024-03-22T00:27:41;12.40;99.90
70550;DHT22;58101;48.658;2.328;2024-03-22T00:30:07;12.40;99.90
70550;DHT22;58101;48.658;2.328;2024-03-22T00:32:32;12.40;99.90
70550;DHT22;58101;48.658;2.328;2024-03-22T00:34:58;12.30;99.90
70550;DHT22;58101;48.658;2.328;2024-03-22T00:37:24;12.30;99.90
70550;DHT22;58101;48.658;2.328;2024-03-22T00:39:49;12.20;99.90
70550;DHT22;58101;48.658;2.328;2024-03-22T00:42:15;12.20;99.90
70550;DHT22;58101;48.658;2.328;2024-03-22T00:44:40;12.10;99.90
70550;DHT22;58101;48.658;2.328;2024-03-22T00:47:06;12.10;99.90
70550;DHT22;58101;48.658;2.328;2024-03-22T00:49:32;12.00;99.90
70550;DHT22;58101;48.658;2.328;2024-03-22T00:51:57;11.90;99.90
70550;DHT22;58101;48.658;2.328;2024-03-22T00:54:23;12.00;99.90
70550;DHT22;58101;48.658;2.328;2024-03-22T00:56:49;12.00;99.90
70550;DHT22;58101;48.658;2.328;2024-03-22T00:59:14;11.90;99.90
70550;DHT22;58101;48.658;2.328;2024-03-22T01:01:40;11.90;99.90
70550;DHT22;58101;48.658;2.328;2024-03-22T01:04:05;11.80;99.90
70550;DHT22;58101;48.658;2.328;2024-03-22T01:06:32;11.80;99.90
70550;DHT22;58101;48.658;2.328;2024-03-22T01:08:59;11.80;99.90
70550;DHT22;58101;48.658;2.328;2024-03-22T01:11:24;11.70;99.90
70550;DHT22;58101;48.658;2.328;2024-03-22T01:13:50;11.70;99.90
70550;DHT22;58101;48.658;2.328;2024-03-22T01:16:16;11.70;99.90
70550;DHT22;58101;48.658;2.328;2024-03-22T01:18:42;11.50;99.90
70550;DHT22;58101;48.658;2.328;2024-03-22T01:21:07;11.70;99.90
70550;DHT22;58101;48.658;2.328;2024-03-22T01:23:33;11.70;99.90
70550;DHT22;58101;48.658;2.328;2024-03-22T01:25:58;11.60;99.90
70550;DHT22;58101;48.658;2.328;2024-03-22T01:28:24;11.60;99.90
70550;DHT22;58101;48.658;2.328;2024-03-22T01:30:49;11.60;99.90
70550;DHT22;58101;48.658;2.328;2024-03-22T01:33:15;11.60;99.90
70550;DHT22;58101;48.658;2.328;2024-03-22T01:35:41;11.50;99.90
70550;DHT22;58101;48.658;2.328;2024-03-22T01:38:06;11.50;99.90
70550;DHT22;58101;48.658;2.328;2024-03-22T01:40:32;11.50;99.90
70550;DHT22;58101;48.658;2.328;2024-03-22T01:42:58;11.40;99.90
70550;DHT22;58101;48.658;2.328;2024-03-22T01:45:24;11.40;99.90
70550;DHT22;58101;48.658;2.328;2024-03-22T01:47:54;11.40;99.90
70550;DHT22;58101;48.658;2.328;2024-03-22T01:50:21;11.40;99.90
70550;DHT22;58101;48.658;2.328;2024-03-22T01:52:46;11.30;99.90
70550;DHT22;58101;48.658;2.328;2024-03-22T01:55:12;11.30;99.90
70550;DHT22;58101;48.658;2.328;2024-03-22T01:57:38;11.30;99.90
70550;DHT22;58101;48.658;2.328;2024-03-22T02:00:04;11.20;99.90
70550;DHT22;58101;48.658;2.328;2024-03-22T02:02:30;11.20;99.90
70550;DHT22;58101;48.658;2.328;2024-03-22T02:04:56;11.20;99.90
70550;DHT22;58101;48.658;2.328;2024-03-22T02:07:22;11.20;99.90
70550;DHT22;58101;48.658;2.328;2024-03-22T02:09:48;11.20;99.90
70550;DHT22;58101;48.658;2.328;2024-03-22T02:12:14;11.10;99.90
70550;DHT22;58101;48.658;2.328;2024-03-22T02:14:41;11.20;99.90
70550;DHT22;58101;48.658;2.328;2024-03-22T02:17:06;11.10;99.90
70550;DHT22;58101;48.658;2.328;2024-03-22T02:19:32;11.00;99.90
70550;DHT22;58101;48.658;2.328;2024-03-22T02:21:58;11.00;99.90
70550;DHT22;58101;48.658;2.328;2024-03-22T02:24:23;11.10;99.90
70550;DHT22;58101;48.658;2.328;2024-03-22T02:26:49;11.00;99.90
70550;DHT22;58101;48.658;2.328;2024-03-22T02:29:14;11.00;99.90
70550;DHT22;58101;48.658;2.328;2024-03-22T02:31:40;10.90;99.90
70550;DHT22;58101;48.658;2.328;2024-03-22T02:34:06;11.00;99.90
70550;DHT22;58101;48.658;2.328;2024-03-22T02:36:31;10.90;99.90
70550;DHT22;58101;48.658;2.328;2024-03-22T02:38:57;10.90;99.90
70550;DHT22;58101;48.658;2.328;2024-03-22T02:41:22;10.90;99.90
70550;DHT22;58101;48.658;2.328;2024-03-22T02:43:48;10.80;99.90
70550;DHT22;58101;48.658;2.328;2024-03-22T02:46:14;10.80;99.90
70550;DHT22;58101;48.658;2.328;2024-03-22T02:48:39;10.80;99.90
70550;DHT22;58101;48.658;2.328;2024-03-22T02:51:05;10.70;99.90
70550;DHT22;58101;48.658;2.328;2024-03-22T02:53:30;10.70;99.90
70550;DHT22;58101;48.658;2.328;2024-03-22T02:56:00;10.70;99.90
70550;DHT22;58101;48.658;2.328;2024-03-22T02:58:26;10.70;99.90
70550;DHT22;58101;48.658;2.328;2024-03-22T03:00:51;10.60;99.90
70550;DHT22;58101;48.658;2.328;2024-03-22T03:03:17;10.60;99.90
70550;DHT22;58101;48.658;2.328;2024-03-22T03:05:42;10.50;99.90
70550;DHT22;58101;48.658;2.328;2024-03-22T03:08:09;10.50;99.90
70550;DHT22;58101;48.658;2.328;2024-03-22T03:10:35;10.50;99.90
70550;DHT22;58101;48.658;2.328;2024-03-22T03:13:01;10.50;99.90
70550;DHT22;58101;48.658;2.328;2024-03-22T03:15:26;10.50;99.90
70550;DHT22;58101;48.658;2.328;2024-03-22T03:17:52;10.40;99.90
70550;DHT22;58101;48.658;2.328;2024-03-22T03:20:18;10.50;99.90
70550;DHT22;58101;48.658;2.328;2024-03-22T03:22:43;10.40;99.90
70550;DHT22;58101;48.658;2.328;2024-03-22T03:25:09;10.50;99.90
70550;DHT22;58101;48.658;2.328;2024-03-22T03:27:35;10.30;99.90
70550;DHT22;58101;48.658;2.328;2024-03-22T03:30:01;10.40;99.90
70550;DHT22;58101;48.658;2.328;2024-03-22T03:32:27;10.40;99.90
70550;DHT22;58101;48.658;2.328;2024-03-22T03:34:53;10.30;99.90
70550;DHT22;58101;48.658;2.328;2024-03-22T03:37:19;10.30;99.90
70550;DHT22;58101;48.658;2.328;2024-03-22T03:39:44;10.30;99.90
70550;DHT22;58101;48.658;2.328;2024-03-22T03:42:10;10.30;99.90
70550;DHT22;58101;48.658;2.328;2024-03-22T03:44:36;10.20;99.90
70550;DHT22;58101;48.658;2.328;2024-03-22T03:47:02;10.20;99.90
70550;DHT22;58101;48.658;2.328;2024-03-22T03:49:28;10.20;99.90
70550;DHT22;58101;48.658;2.328;2024-03-22T03:51:53;10.10;99.90
70550;DHT22;58101;48.658;2.328;2024-03-22T03:54:19;10.10;99.90
70550;DHT22;58101;48.658;2.328;2024-03-22T03:56:44;10.10;99.90
70550;DHT22;58101;48.658;2.328;2024-03-22T03:59:10;10.00;99.90
70550;DHT22;58101;48.658;2.328;2024-03-22T04:01:36;10.00;99.90
70550;DHT22;58101;48.658;2.328;2024-03-22T04:04:02;10.00;99.90
70550;DHT22;58101;48.658;2.328;2024-03-22T04:06:28;9.90;99.90
70550;DHT22;58101;48.658;2.328;2024-03-22T04:08:53;10.00;99.90
70550;DHT22;58101;48.658;2.328;2024-03-22T04:11:19;9.90;99.90
70550;DHT22;58101;48.658;2.328;2024-03-22T04:13:45;9.90;99.90
70550;DHT22;58101;48.658;2.328;2024-03-22T04:16:10;9.90;99.90
70550;DHT22;58101;48.658;2.328;2024-03-22T04:18:36;10.00;99.90
70550;DHT22;58101;48.658;2.328;2024-03-22T04:21:02;9.80;99.90
70550;DHT22;58101;48.658;2.328;2024-03-22T04:23:27;9.80;99.90
70550;DHT22;58101;48.658;2.328;2024-03-22T04:25:54;9.80;99.90
70550;DHT22;58101;48.658;2.328;2024-03-22T04:28:20;9.90;99.90
70550;DHT22;58101;48.658;2.328;2024-03-22T04:31:05;9.90;99.90
70550;DHT22;58101;48.658;2.328;2024-03-22T04:33:32;10.00;99.90
70550;DHT22;58101;48.658;2.328;2024-03-22T04:35:58;9.90;99.90
70550;DHT22;58101;48.658;2.328;2024-03-22T04:38:25;9.90;99.90
70550;DHT22;58101;48.658;2.328;2024-03-22T04:40:51;10.00;99.90
70550;DHT22;58101;48.658;2.328;2024-03-22T04:43:17;9.90;99.90
70550;DHT22;58101;48.658;2.328;2024-03-22T04:45:44;9.80;99.90
70550;DHT22;58101;48.658;2.328;2024-03-22T04:48:10;9.80;99.90
70550;DHT22;58101;48.658;2.328;2024-03-22T04:50:35;9.80;99.90
70550;DHT22;58101;48.658;2.328;2024-03-22T04:53:02;9.70;99.90
70550;DHT22;58101;48.658;2.328;2024-03-22T04:55:27;9.70;99.90
70550;DHT22;58101;48.658;2.328;2024-03-22T04:57:53;9.70;99.90
70550;DHT22;58101;48.658;2.328;2024-03-22T05:00:19;9.70;99.90
70550;DHT22;58101;48.658;2.328;2024-03-22T05:02:45;9.60;99.90
70550;DHT22;58101;48.658;2.328;2024-03-22T05:05:11;9.60;99.90
70550;DHT22;58101;48.658;2.328;2024-03-22T05:07:37;9.60;99.90
70550;DHT22;58101;48.658;2.328;2024-03-22T05:10:03;9.60;99.90
70550;DHT22;58101;48.658;2.328;2024-03-22T05:12:29;9.50;99.90
70550;DHT22;58101;48.658;2.328;2024-03-22T05:14:55;9.50;99.90
70550;DHT22;58101;48.658;2.328;2024-03-22T05:17:20;9.50;99.90
70550;DHT22;58101;48.658;2.328;2024-03-22T05:19:46;9.40;99.90
70550;DHT22;58101;48.658;2.328;2024-03-22T05:22:12;9.40;99.90
70550;DHT22;58101;48.658;2.328;2024-03-22T05:24:38;9.40;99.90
70550;DHT22;58101;48.658;2.328;2024-03-22T05:27:03;9.40;99.90
70550;DHT22;58101;48.658;2.328;2024-03-22T05:29:29;9.30;99.90
70550;DHT22;58101;48.658;2.328;2024-03-22T05:31:55;9.30;99.90
70550;DHT22;58101;48.658;2.328;2024-03-22T05:34:20;9.20;99.90
70550;DHT22;58101;48.658;2.328;2024-03-22T05:36:46;9.20;99.90
70550;DHT22;58101;48.658;2.328;2024-03-22T05:39:12;9.30;99.90
70550;DHT22;58101;48.658;2.328;2024-03-22T05:41:38;9.20;99.90
70550;DHT22;58101;48.658;2.328;2024-03-22T05:44:04;9.20;99.90
70550;DHT22;58101;48.658;2.328;2024-03-22T05:46:30;9.20;99.90
70550;DHT22;58101;48.658;2.328;2024-03-22T05:48:57;9.10;99.90
70550;DHT22;58101;48.658;2.328;2024-03-22T05:51:23;9.20;99.90
70550;DHT22;58101;48.658;2.328;2024-03-22T05:53:48;9.20;99.90
70550;DHT22;58101;48.658;2.328;2024-03-22T05:56:14;9.20;99.90
70550;DHT22;58101;48.658;2.328;2024-03-22T05:58:40;9.20;99.90
70550;DHT22;58101;48.658;2.328;2024-03-22T06:01:06;9.20;99.90
70550;DHT22;58101;48.658;2.328;2024-03-22T06:03:31;9.20;99.90
70550;DHT22;58101;48.658;2.328;2024-03-22T06:05:59;9.20;99.90
70550;DHT22;58101;48.658;2.328;2024-03-22T06:08:26;9.30;99.90
70550;DHT22;58101;48.658;2.328;2024-03-22T06:10:55;9.30;99.90
70550;DHT22;58101;48.658;2.328;2024-03-22T06:13:24;9.40;99.90
70550;DHT22;58101;48.658;2.328;2024-03-22T06:15:49;9.30;99.90
70550;DHT22;58101;48.658;2.328;2024-03-22T06:18:15;9.30;99.90
70550;DHT22;58101;48.658;2.328;2024-03-22T06:20:41;9.30;99.90
70550;DHT22;58101;48.658;2.328;2024-03-22T06:23:08;9.30;99.90
70550;DHT22;58101;48.658;2.328;2024-03-22T06:25:33;9.30;99.90
70550;DHT22;58101;48.658;2.328;2024-03-22T06:27:59;9.40;99.90
70550;DHT22;58101;48.658;2.328;2024-03-22T06:30:25;9.40;99.90
70550;DHT22;58101;48.658;2.328;2024-03-22T06:32:50;9.50;99.90
70550;DHT22;58101;48.658;2.328;2024-03-22T06:35:16;9.40;99.90
70550;DHT22;58101;48.658;2.328;2024-03-22T06:37:41;9.50;99.90
70550;DHT22;58101;48.658;2.328;2024-03-22T06:40:08;9.50;99.90
70550;DHT22;58101;48.658;2.328;2024-03-22T06:42:33;9.70;99.90
70550;DHT22;58101;48.658;2.328;2024-03-22T06:44:59;9.80;99.90
70550;DHT22;58101;48.658;2.328;2024-03-22T06:47:24;9.90;99.90
70550;DHT22;58101;48.658;2.328;2024-03-22T06:49:50;9.90;99.90
70550;DHT22;58101;48.658;2.328;2024-03-22T06:52:16;10.00;99.90
70550;DHT22;58101;48.658;2.328;2024-03-22T06:54:43;10.10;99.90
70550;DHT22;58101;48.658;2.328;2024-03-22T06:57:09;10.20;99.90
70550;DHT22;58101;48.658;2.328;2024-03-22T06:59:34;10.40;99.90
70550;DHT22;58101;48.658;2.328;2024-03-22T07:02:00;10.40;99.90
70550;DHT22;58101;48.658;2.328;2024-03-22T07:04:26;10.60;99.90
70550;DHT22;58101;48.658;2.328;2024-03-22T07:06:51;10.70;99.90
70550;DHT22;58101;48.658;2.328;2024-03-22T07:09:17;10.80;99.90
70550;DHT22;58101;48.658;2.328;2024-03-22T07:11:43;11.00;99.90
70550;DHT22;58101;48.658;2.328;2024-03-22T07:14:09;11.20;99.90
70550;DHT22;58101;48.658;2.328;2024-03-22T07:16:34;11.30;99.90
70550;DHT22;58101;48.658;2.328;2024-03-22T07:19:02;11.50;99.90
70550;DHT22;58101;48.658;2.328;2024-03-22T07:21:29;11.60;99.90
70550;DHT22;58101;48.658;2.328;2024-03-22T07:23:54;11.70;99.90
70550;DHT22;58101;48.658;2.328;2024-03-22T07:26:20;11.90;99.90
70550;DHT22;58101;48.658;2.328;2024-03-22T07:28:46;11.90;99.90
70550;DHT22;58101;48.658;2.328;2024-03-22T07:31:12;12.20;99.90
70550;DHT22;58101;48.658;2.328;2024-03-22T07:33:37;12.20;99.90
70550;DHT22;58101;48.658;2.328;2024-03-22T07:36:04;12.40;99.90
70550;DHT22;58101;48.658;2.328;2024-03-22T07:38:30;12.60;99.90
70550;DHT22;58101;48.658;2.328;2024-03-22T07:40:56;12.70;99.90
70550;DHT22;58101;48.658;2.328;2024-03-22T07:43:22;12.80;99.90
70550;DHT22;58101;48.658;2.328;2024-03-22T07:45:47;13.00;99.90
70550;DHT22;58101;48.658;2.328;2024-03-22T07:48:13;13.20;99.90
70550;DHT22;58101;48.658;2.328;2024-03-22T07:50:39;13.30;99.90
70550;DHT22;58101;48.658;2.328;2024-03-22T07:53:04;13.50;99.90
70550;DHT22;58101;48.658;2.328;2024-03-22T07:55:30;13.70;99.90
70550;DHT22;58101;48.658;2.328;2024-03-22T07:57:56;14.00;99.90
70550;DHT22;58101;48.658;2.328;2024-03-22T08:00:23;14.10;99.90
70550;DHT22;58101;48.658;2.328;2024-03-22T08:02:53;14.30;99.90
70550;DHT22;58101;48.658;2.328;2024-03-22T08:05:18;14.50;99.90
70550;DHT22;58101;48.658;2.328;2024-03-22T08:07:45;14.40;99.90
70550;DHT22;58101;48.658;2.328;2024-03-22T08:10:11;14.70;99.90
70550;DHT22;58101;48.658;2.328;2024-03-22T08:12:36;15.00;99.90
70550;DHT22;58101;48.658;2.328;2024-03-22T08:15:02;15.20;99.90
70550;DHT22;58101;48.658;2.328;2024-03-22T08:17:28;15.40;99.90
70550;DHT22;58101;48.658;2.328;2024-03-22T08:19:54;15.60;99.90
70550;DHT22;58101;48.658;2.328;2024-03-22T08:22:19;15.80;99.90
70550;DHT22;58101;48.658;2.328;2024-03-22T08:24:45;16.20;99.90
70550;DHT22;58101;48.658;2.328;2024-03-22T08:27:11;16.40;99.90
70550;DHT22;58101;48.658;2.328;2024-03-22T08:29:37;17.10;99.90
70550;DHT22;58101;48.658;2.328;2024-03-22T08:32:03;17.90;98.10
70550;DHT22;58101;48.658;2.328;2024-03-22T08:34:30;19.30;92.30
70550;DHT22;58101;48.658;2.328;2024-03-22T08:36:55;20.80;68.70
70550;DHT22;58101;48.658;2.328;2024-03-22T08:39:21;22.10;60.10
70550;DHT22;58101;48.658;2.328;2024-03-22T08:41:47;23.50;55.20
70550;DHT22;58101;48.658;2.328;2024-03-22T08:44:13;24.60;50.10
70550;DHT22;58101;48.658;2.328;2024-03-22T08:46:38;25.30;42.60
70550;DHT22;58101;48.658;2.328;2024-03-22T08:49:04;25.20;42.10
70550;DHT22;58101;48.658;2.328;2024-03-22T08:51:30;26.00;41.60
70550;DHT22;58101;48.658;2.328;2024-03-22T08:53:56;26.70;40.40
70550;DHT22;58101;48.658;2.328;2024-03-22T08:56:21;27.30;38.90
70550;DHT22;58101;48.658;2.328;2024-03-22T08:58:47;27.80;36.80
70550;DHT22;58101;48.658;2.328;2024-03-22T09:01:13;28.40;35.60
70550;DHT22;58101;48.658;2.328;2024-03-22T09:03:38;28.40;33.60
70550;DHT22;58101;48.658;2.328;2024-03-22T09:06:04;28.60;34.40
70550;DHT22;58101;48.658;2.328;2024-03-22T09:08:30;28.10;32.00
70550;DHT22;58101;48.658;2.328;2024-03-22T09:10:56;28.20;33.80
70550;DHT22;58101;48.658;2.328;2024-03-22T09:13:22;28.70;33.40
70550;DHT22;58101;48.658;2.328;2024-03-22T09:15:48;28.90;32.50
70550;DHT22;58101;48.658;2.328;2024-03-22T09:18:14;28.50;31.50
70550;DHT22;58101;48.658;2.328;2024-03-22T09:20:40;28.70;32.50
70550;DHT22;58101;48.658;2.328;2024-03-22T09:23:05;28.70;31.60
70550;DHT22;58101;48.658;2.328;2024-03-22T09:25:31;28.70;30.70
70550;DHT22;58101;48.658;2.328;2024-03-22T09:27:56;28.40;32.30
70550;DHT22;58101;48.658;2.328;2024-03-22T09:30:22;28.90;31.20
70550;DHT22;58101;48.658;2.328;2024-03-22T09:32:47;29.60;31.10
70550;DHT22;58101;48.658;2.328;2024-03-22T09:35:13;30.10;30.70
70550;DHT22;58101;48.658;2.328;2024-03-22T09:37:43;30.50;28.60
70550;DHT22;58101;48.658;2.328;2024-03-22T09:40:09;30.60;28.70
70550;DHT22;58101;48.658;2.328;2024-03-22T09:42:38;30.70;28.80
70550;DHT22;58101;48.658;2.328;2024-03-22T09:45:08;31.20;28.10
70550;DHT22;58101;48.658;2.328;2024-03-22T09:47:36;30.90;26.80
70550;DHT22;58101;48.658;2.328;2024-03-22T09:50:04;31.00;27.60
70550;DHT22;58101;48.658;2.328;2024-03-22T09:52:33;31.70;27.50
70550;DHT22;58101;48.658;2.328;2024-03-22T09:54:58;32.30;26.40
70550;DHT22;58101;48.658;2.328;2024-03-22T09:57:25;32.10;24.90
70550;DHT22;58101;48.658;2.328;2024-03-22T09:59:51;32.30;26.20
70550;DHT22;58101;48.658;2.328;2024-03-22T10:02:17;32.50;26.10
70550;DHT22;58101;48.658;2.328;2024-03-22T10:04:43;32.00;25.20
70550;DHT22;58101;48.658;2.328;2024-03-22T10:07:09;31.70;26.60
70550;DHT22;58101;48.658;2.328;2024-03-22T10:09:35;31.50;26.60
70550;DHT22;58101;48.658;2.328;2024-03-22T10:12:01;31.90;26.20
70550;DHT22;58101;48.658;2.328;2024-03-22T10:14:29;32.10;26.30
70550;DHT22;58101;48.658;2.328;2024-03-22T10:16:55;32.50;26.30
70550;DHT22;58101;48.658;2.328;2024-03-22T10:19:21;33.10;25.40
70550;DHT22;58101;48.658;2.328;2024-03-22T10:22:07;33.40;25.00
70550;DHT22;58101;48.658;2.328;2024-03-22T10:24:33;33.90;24.80
70550;DHT22;58101;48.658;2.328;2024-03-22T10:26:59;33.80;22.60
70550;DHT22;58101;48.658;2.328;2024-03-22T10:29:24;32.30;24.60
70550;DHT22;58101;48.658;2.328;2024-03-22T10:31:52;31.70;24.50
70550;DHT22;58101;48.658;2.328;2024-03-22T10:34:18;31.70;25.50
70550;DHT22;58101;48.658;2.328;2024-03-22T10:36:46;31.80;26.10
70550;DHT22;58101;48.658;2.328;2024-03-22T10:39:17;32.20;25.40
70550;DHT22;58101;48.658;2.328;2024-03-22T10:41:45;32.80;25.00
70550;DHT22;58101;48.658;2.328;2024-03-22T10:44:11;33.40;24.40
70550;DHT22;58101;48.658;2.328;2024-03-22T10:46:38;33.50;23.50
70550;DHT22;58101;48.658;2.328;2024-03-22T10:49:05;33.60;23.10
70550;DHT22;58101;48.658;2.328;2024-03-22T10:51:33;33.30;23.10
70550;DHT22;58101;48.658;2.328;2024-03-22T10:54:02;33.40;23.80
70550;DHT22;58101;48.658;2.328;2024-03-22T10:56:29;33.40;23.10
70550;DHT22;58101;48.658;2.328;2024-03-22T10:58:55;33.30;23.80
70550;DHT22;58101;48.658;2.328;2024-03-22T11:01:27;33.20;24.10
70550;DHT22;58101;48.658;2.328;2024-03-22T11:04:08;33.20;23.60
70550;DHT22;58101;48.658;2.328;2024-03-22T11:06:36;33.30;24.30
70550;DHT22;58101;48.658;2.328;2024-03-22T11:09:03;33.60;24.00
70550;DHT22;58101;48.658;2.328;2024-03-22T11:11:34;34.00;24.20
70550;DHT22;58101;48.658;2.328;2024-03-22T11:14:03;34.40;23.80
70550;DHT22;58101;48.658;2.328;2024-03-22T11:16:29;34.40;23.20
70550;DHT22;58101;48.658;2.328;2024-03-22T11:18:55;34.50;23.10
70550;DHT22;58101;48.658;2.328;2024-03-22T11:21:23;34.70;23.20
70550;DHT22;58101;48.658;2.328;2024-03-22T11:23:49;35.00;22.80
70550;DHT22;58101;48.658;2.328;2024-03-22T11:26:15;34.60;22.20
70550;DHT22;58101;48.658;2.328;2024-03-22T11:28:42;34.20;23.10
70550;DHT22;58101;48.658;2.328;2024-03-22T11:31:08;34.30;22.90
70550;DHT22;58101;48.658;2.328;2024-03-22T11:33:33;34.80;23.80
70550;DHT22;58101;48.658;2.328;2024-03-22T11:36:00;35.30;23.40
70550;DHT22;58101;48.658;2.328;2024-03-22T11:38:26;35.50;23.10
70550;DHT22;58101;48.658;2.328;2024-03-22T11:41:00;35.70;22.80
70550;DHT22;58101;48.658;2.328;2024-03-22T11:43:28;35.70;22.30
70550;DHT22;58101;48.658;2.328;2024-03-22T11:45:55;35.60;22.40
70550;DHT22;58101;48.658;2.328;2024-03-22T11:48:23;35.50;22.90
70550;DHT22;58101;48.658;2.328;2024-03-22T11:50:49;35.40;22.80
70550;DHT22;58101;48.658;2.328;2024-03-22T11:53:18;35.30;23.30
70550;DHT22;58101;48.658;2.328;2024-03-22T11:55:44;35.30;23.10
70550;DHT22;58101;48.658;2.328;2024-03-22T11:58:10;35.10;23.10
70550;DHT22;58101;48.658;2.328;2024-03-22T12:00:36;35.10;23.30
70550;DHT22;58101;48.658;2.328;2024-03-22T12:03:04;35.00;23.50
70550;DHT22;58101;48.658;2.328;2024-03-22T12:05:31;34.50;23.70
70550;DHT22;58101;48.658;2.328;2024-03-22T12:07:57;34.10;24.40
70550;DHT22;58101;48.658;2.328;2024-03-22T12:10:23;33.90;24.50
70550;DHT22;58101;48.658;2.328;2024-03-22T12:12:48;33.40;24.40
70550;DHT22;58101;48.658;2.328;2024-03-22T12:15:14;32.70;25.20
70550;DHT22;58101;48.658;2.328;2024-03-22T12:17:39;32.50;26.20
70550;DHT22;58101;48.658;2.328;2024-03-22T12:20:08;32.40;26.80
70550;DHT22;58101;48.658;2.328;2024-03-22T12:22:34;32.20;26.90
70550;DHT22;58101;48.658;2.328;2024-03-22T12:25:00;31.60;26.20
70550;DHT22;58101;48.658;2.328;2024-03-22T12:27:26;31.30;28.00
70550;DHT22;58101;48.658;2.328;2024-03-22T12:29:52;31.10;28.70
70550;DHT22;58101;48.658;2.328;2024-03-22T12:32:17;31.00;28.20
70550;DHT22;58101;48.658;2.328;2024-03-22T12:34:43;30.90;28.40
70550;DHT22;58101;48.658;2.328;2024-03-22T12:37:09;30.70;27.80
70550;DHT22;58101;48.658;2.328;2024-03-22T12:39:35;30.70;28.70
70550;DHT22;58101;48.658;2.328;2024-03-22T12:42:01;30.60;28.40
70550;DHT22;58101;48.658;2.328;2024-03-22T12:44:27;30.40;28.60
70550;DHT22;58101;48.658;2.328;2024-03-22T12:46:52;30.30;28.60
70550;DHT22;58101;48.658;2.328;2024-03-22T12:49:19;30.20;28.60
70550;DHT22;58101;48.658;2.328;2024-03-22T12:51:45;30.10;28.70
70550;DHT22;58101;48.658;2.328;2024-03-22T12:54:11;29.50;28.10
70550;DHT22;58101;48.658;2.328;2024-03-22T12:56:38;28.80;28.90
70550;DHT22;58101;48.658;2.328;2024-03-22T12:59:04;28.60;30.20
70550;DHT22;58101;48.658;2.328;2024-03-22T13:01:30;28.40;30.00
70550;DHT22;58101;48.658;2.328;2024-03-22T13:03:56;28.20;29.60
70550;DHT22;58101;48.658;2.328;2024-03-22T13:06:22;27.60;29.40
70550;DHT22;58101;48.658;2.328;2024-03-22T13:08:48;27.30;30.70
70550;DHT22;58101;48.658;2.328;2024-03-22T13:11:13;27.20;30.10
70550;DHT22;58101;48.658;2.328;2024-03-22T13:13:39;27.10;30.00
70550;DHT22;58101;48.658;2.328;2024-03-22T13:16:05;27.00;29.80
70550;DHT22;58101;48.658;2.328;2024-03-22T13:18:32;26.40;29.90
70550;DHT22;58101;48.658;2.328;2024-03-22T13:20:57;26.40;29.50
70550;DHT22;58101;48.658;2.328;2024-03-22T13:23:23;26.10;29.20
70550;DHT22;58101;48.658;2.328;2024-03-22T13:25:49;25.60;30.20
70550;DHT22;58101;48.658;2.328;2024-03-22T13:28:15;25.60;30.90
70550;DHT22;58101;48.658;2.328;2024-03-22T13:30:45;25.50;30.70
70550;DHT22;58101;48.658;2.328;2024-03-22T13:33:11;25.20;30.70
70550;DHT22;58101;48.658;2.328;2024-03-22T13:35:36;24.90;31.90
70550;DHT22;58101;48.658;2.328;2024-03-22T13:38:02;24.70;30.20
70550;DHT22;58101;48.658;2.328;2024-03-22T13:40:27;24.40;30.40
70550;DHT22;58101;48.658;2.328;2024-03-22T13:42:53;24.00;31.90
70550;DHT22;58101;48.658;2.328;2024-03-22T13:45:19;23.90;33.10
70550;DHT22;58101;48.658;2.328;2024-03-22T13:47:45;24.00;33.40
70550;DHT22;58101;48.658;2.328;2024-03-22T13:50:11;24.10;34.00
70550;DHT22;58101;48.658;2.328;2024-03-22T13:52:37;24.10;34.20
70550;DHT22;58101;48.658;2.328;2024-03-22T13:55:03;24.00;34.10
70550;DHT22;58101;48.658;2.328;2024-03-22T13:57:30;23.90;35.00
70550;DHT22;58101;48.658;2.328;2024-03-22T13:59:59;23.70;36.40
70550;DHT22;58101;48.658;2.328;2024-03-22T14:02:24;23.60;36.50
70550;DHT22;58101;48.658;2.328;2024-03-22T14:04:50;23.50;36.30
70550;DHT22;58101;48.658;2.328;2024-03-22T14:07:15;23.30;36.60
70550;DHT22;58101;48.658;2.328;2024-03-22T14:09:41;23.10;36.40
70550;DHT22;58101;48.658;2.328;2024-03-22T14:12:08;22.90;36.90
70550;DHT22;58101;48.658;2.328;2024-03-22T14:14:34;22.60;38.00
70550;DHT22;58101;48.658;2.328;2024-03-22T14:16:59;22.50;36.50
70550;DHT22;58101;48.658;2.328;2024-03-22T14:19:25;22.40;37.10
70550;DHT22;58101;48.658;2.328;2024-03-22T14:21:53;22.20;37.90
70550;DHT22;58101;48.658;2.328;2024-03-22T14:24:22;22.10;38.70
70550;DHT22;58101;48.658;2.328;2024-03-22T14:26:47;22.00;38.10
70550;DHT22;58101;48.658;2.328;2024-03-22T14:29:13;21.80;38.20
70550;DHT22;58101;48.658;2.328;2024-03-22T14:31:39;21.70;38.10
70550;DHT22;58101;48.658;2.328;2024-03-22T14:34:06;21.70;38.10
70550;DHT22;58101;48.658;2.328;2024-03-22T14:36:32;21.70;37.70
70550;DHT22;58101;48.658;2.328;2024-03-22T14:38:58;21.50;37.00
70550;DHT22;58101;48.658;2.328;2024-03-22T14:41:24;21.40;37.00
70550;DHT22;58101;48.658;2.328;2024-03-22T14:43:50;21.30;36.90
70550;DHT22;58101;48.658;2.328;2024-03-22T14:46:16;21.40;37.30
70550;DHT22;58101;48.658;2.328;2024-03-22T14:48:43;21.30;37.20
70550;DHT22;58101;48.658;2.328;2024-03-22T14:51:09;21.10;37.90
70550;DHT22;58101;48.658;2.328;2024-03-22T14:53:35;20.90;38.10
70550;DHT22;58101;48.658;2.328;2024-03-22T14:56:02;20.80;38.70
70550;DHT22;58101;48.658;2.328;2024-03-22T14:58:31;20.70;39.60
70550;DHT22;58101;48.658;2.328;2024-03-22T15:00:59;20.80;39.50
70550;DHT22;58101;48.658;2.328;2024-03-22T15:03:28;20.80;39.00
70550;DHT22;58101;48.658;2.328;2024-03-22T15:05:55;21.10;39.00
70550;DHT22;58101;48.658;2.328;2024-03-22T15:08:25;20.90;38.70
70550;DHT22;58101;48.658;2.328;2024-03-22T15:10:51;20.90;38.10
70550;DHT22;58101;48.658;2.328;2024-03-22T15:13:17;20.90;38.60
70550;DHT22;58101;48.658;2.328;2024-03-22T15:15:53;21.00;38.00
70550;DHT22;58101;48.658;2.328;2024-03-22T15:18:19;20.70;38.80
70550;DHT22;58101;48.658;2.328;2024-03-22T15:20:46;20.90;39.80
70550;DHT22;58101;48.658;2.328;2024-03-22T15:23:11;20.90;40.00
70550;DHT22;58101;48.658;2.328;2024-03-22T15:25:37;20.90;41.60